Wawarsing, NY (12489)

12:55 PM EST on December 10, 2016 (GMT -0500)
Hamlet of Wawarsing | | Change Station

Elev 295 ft 41.76 °N, 74.36 °W | Updated 4 seconds ago

Mostly Cloudy
Mostly Cloudy
31.7 °F
Feels Like 32 °F
N
3.0
Wind Variable Wind from SSE

Today
High -- | Low -- °F
--% Chance of Precip.
Yesterday
High -- | Low -- °F
Precip. -- in
Pressure 30.34 in
Visibility 10.0 miles
Clouds Few 3800 ft
Mostly Cloudy 4600 ft
Windchill 32 °F
Dew Point 14 °F
Humidity 48%
Rainfall 0.00 in
Snow Depth Not available.
7:14 AM 4:26 PM
Waxing Gibbous, 85% visible
METAR KMGJ 101654Z AUTO 30007KT 10SM FEW038 BKN046 M01/M09 A3032 RMK AO2 SLP273 T10061089 TSNO
Pressure 30.34 in
Visibility 10.0 miles
Clouds Few 3800 ft
Mostly Cloudy 4600 ft
Windchill 32 °F
Dew Point 14 °F
Humidity 48%
Rainfall 0.00 in
Snow Depth Not available.
7:14 AM 4:26 PM
Waxing Gibbous, 85% visible
METAR KMGJ 101654Z AUTO 30007KT 10SM FEW038 BKN046 M01/M09 A3032 RMK AO2 SLP273 T10061089 TSNO

10-Day Weather Forecast

Almanac

Astronomy

Dec. 10, 2016 Rise Set
Actual Time
Civil Twilight
Nautical Twilight
Astronomical Twilight
Moon
Length of Visible Light
Length of Day
Tomorrow will be .
, % of the Moon is Illuminated

Today's Extremes

State Highs State Lows

Community

WunderPhotos

Upload Photos

1,956,591 photos uploaded!

WunderBlog® & News

Nearby

Air Quality

  Air Quality AQ Index Pollutant
Not available.

Snow Depth

Station Depth Elevation

Earthquake Activity

City Distance Mag. Time & Date
Minimum magnitude displayed is 2.5.

Coastal Water Temperatures

Place Temperature

Stations

Nearby Weather Stations

Station Location Temp. Windchill Dew Point Humidity Wind Precip. Elev Updated Type
                   

Watches & Warnings

There are currently no watches in effect.